Time;durP1;ratioP1;P1;durP2;ratioP2;P2;SDS_P1;SDS_P2;PMS_P1;PMS_P2;Temp;Humidity;BMP_temperature;BMP_pressure;BME280_temperature;BME280_humidity;BME280_pressure;Samples;Min_cycle;Max_cycle;Signal;HPM_P1;HPM_P2
2022/08/05 00:01:20;;;;;;;4.65;3.05;;;17.90;99.90;;;;;;5037949;28;20063;-79
2022/08/05 00:03:47;;;;;;;6.60;3.75;;;18.00;99.90;;;;;;5027316;28;20037;-78
2022/08/05 00:06:13;;;;;;;5.15;3.28;;;18.00;99.90;;;;;;5035014;28;20475;-78
2022/08/05 00:08:39;;;;;;;5.30;3.05;;;17.90;99.90;;;;;;5034500;28;20041;-79
2022/08/05 00:11:07;;;;;;;7.10;3.55;;;18.00;99.90;;;;;;5052442;28;20094;-79
2022/08/05 00:13:34;;;;;;;5.32;3.10;;;17.90;99.90;;;;;;5010744;28;20066;-78
2022/08/05 00:16:00;;;;;;;4.43;3.00;;;17.90;99.90;;;;;;5019175;28;20436;-79
2022/08/05 00:18:26;;;;;;;5.50;3.47;;;17.90;99.90;;;;;;5042508;28;20033;-79
2022/08/05 00:20:52;;;;;;;6.05;3.20;;;17.90;99.90;;;;;;5030261;28;20082;-79
2022/08/05 00:23:18;;;;;;;5.95;3.08;;;17.90;99.90;;;;;;5031685;28;20064;-79
2022/08/05 00:25:44;;;;;;;6.60;3.40;;;17.90;99.90;;;;;;5034251;28;20075;-79
2022/08/05 00:28:09;;;;;;;5.63;3.63;;;17.90;99.90;;;;;;5040928;28;20507;-79
2022/08/05 00:30:35;;;;;;;7.00;3.92;;;17.90;99.90;;;;;;5026552;28;20151;-79
2022/08/05 00:33:01;;;;;;;5.78;4.13;;;17.80;99.90;;;;;;5018042;28;20408;-78
2022/08/05 00:35:26;;;;;;;5.28;3.28;;;17.90;99.90;;;;;;5018951;28;20115;-79
2022/08/05 00:37:52;;;;;;;6.28;3.40;;;17.80;99.90;;;;;;5042505;28;20048;-80
2022/08/05 00:40:20;;;;;;;5.13;3.67;;;17.80;99.90;;;;;;5012660;28;20033;-79
2022/08/05 00:42:45;;;;;;;5.32;3.60;;;17.80;99.90;;;;;;5026384;28;20036;-79
2022/08/05 00:45:11;;;;;;;5.40;4.07;;;17.80;99.90;;;;;;5012114;28;20091;-79
2022/08/05 00:47:37;;;;;;;5.13;3.47;;;17.80;99.90;;;;;;5029324;28;20120;-80
2022/08/05 00:50:03;;;;;;;5.82;4.15;;;17.80;99.90;;;;;;5011325;28;20036;-79
2022/08/05 00:52:29;;;;;;;5.25;3.92;;;17.80;99.90;;;;;;5037876;28;20036;-79
2022/08/05 00:54:55;;;;;;;4.95;3.65;;;17.80;99.90;;;;;;5017437;28;20471;-79
2022/08/05 00:57:21;;;;;;;4.82;3.42;;;17.80;99.90;;;;;;5018094;28;20120;-79
2022/08/05 00:59:47;;;;;;;4.95;3.10;;;17.70;99.90;;;;;;5032082;28;20037;-78
2022/08/05 01:02:13;;;;;;;5.63;3.70;;;17.80;99.90;;;;;;5032360;28;20068;-78
2022/08/05 01:04:38;;;;;;;5.95;3.78;;;17.80;99.90;;;;;;5034665;28;20083;-78
2022/08/05 01:07:04;;;;;;;5.50;3.50;;;17.80;99.90;;;;;;5034831;28;20159;-78
2022/08/05 01:09:30;;;;;;;5.97;3.55;;;17.80;99.90;;;;;;5032939;28;20547;-78
2022/08/05 01:12:01;;;;;;;6.85;3.53;;;17.70;99.90;;;;;;5026146;28;20028;-78
2022/08/05 01:14:35;;;;;;;5.72;3.80;;;17.70;99.90;;;;;;5033365;28;20037;-78
2022/08/05 01:17:05;;;;;;;7.18;3.67;;;17.70;99.90;;;;;;5042304;28;20479;-79
2022/08/05 01:19:54;;;;;;;4.38;3.55;;;17.70;99.90;;;;;;5017120;28;20068;-78
2022/08/05 01:22:22;;;;;;;6.05;3.15;;;17.70;99.90;;;;;;5023488;28;20404;-78
2022/08/05 01:25:12;;;;;;;5.28;3.70;;;17.70;99.90;;;;;;5026127;28;20496;-79
2022/08/05 01:27:47;;;;;;;4.75;3.90;;;17.70;99.90;;;;;;5032012;28;20125;-79
2022/08/05 01:30:14;;;;;;;4.65;3.92;;;17.70;99.90;;;;;;5018683;28;20481;-79
2022/08/05 01:32:43;;;;;;;6.85;3.58;;;17.60;99.90;;;;;;5036614;28;20037;-79
2022/08/05 01:35:24;;;;;;;6.47;3.35;;;17.60;99.90;;;;;;5034046;28;20040;-78
2022/08/05 01:37:55;;;;;;;4.97;3.70;;;17.70;99.90;;;;;;5017608;28;20140;-79
2022/08/05 01:40:25;;;;;;;5.15;3.70;;;17.60;99.90;;;;;;5028752;28;20043;-78
2022/08/05 01:42:52;;;;;;;3.97;3.40;;;17.60;99.90;;;;;;5030271;28;20460;-79
2022/08/05 01:45:19;;;;;;;6.53;3.92;;;17.60;99.90;;;;;;5015595;28;20504;-79
2022/08/05 01:47:47;;;;;;;7.93;3.78;;;17.60;99.90;;;;;;5025246;28;20493;-79
2022/08/05 01:50:37;;;;;;;6.97;3.90;;;17.60;99.90;;;;;;5062744;22;20127;-81
2022/08/05 01:53:12;;;;;;;8.57;3.90;;;17.50;99.90;;;;;;5033830;28;20028;-82
2022/08/05 01:55:39;;;;;;;5.53;4.00;;;17.50;99.90;;;;;;5064448;28;20067;-81
2022/08/05 01:58:07;;;;;;;5.55;4.40;;;17.50;99.90;;;;;;5053573;28;20500;-81
2022/08/05 02:00:36;;;;;;;4.63;3.75;;;17.50;99.90;;;;;;5050522;28;20082;-79
2022/08/05 02:03:08;;;;;;;4.82;4.05;;;17.50;99.90;;;;;;5036201;28;20476;-79
2022/08/05 02:05:37;;;;;;;4.95;3.80;;;17.50;99.90;;;;;;5045560;28;20090;-80
2022/08/05 02:08:03;;;;;;;6.15;3.88;;;17.40;99.90;;;;;;5053618;28;20515;-79
2022/08/05 02:10:38;;;;;;;5.20;4.07;;;17.40;99.90;;;;;;5044440;28;20115;-80
2022/08/05 02:13:42;;;;;;;5.05;4.55;;;17.40;99.90;;;;;;5025762;28;20075;-80
2022/08/05 02:16:31;;;;;;;5.88;4.20;;;17.40;99.90;;;;;;4986308;28;20053;-79
2022/08/05 02:19:29;;;;;;;6.00;3.90;;;17.40;99.90;;;;;;5026069;28;20039;-79
2022/08/05 02:21:59;;;;;;;6.60;4.03;;;17.40;99.90;;;;;;5005410;28;20044;-80
2022/08/05 02:24:32;;;;;;;5.20;3.85;;;17.40;99.90;;;;;;5052711;28;20109;-80
2022/08/05 02:27:02;;;;;;;4.63;3.45;;;17.30;99.90;;;;;;5033518;28;20041;-80
2022/08/05 02:29:29;;;;;;;5.95;4.03;;;17.40;99.90;;;;;;5030568;28;20033;-79
2022/08/05 02:31:59;;;;;;;5.25;3.55;;;17.40;99.90;;;;;;5039046;28;20119;-80
2022/08/05 02:34:29;;;;;;;5.00;3.90;;;17.30;99.90;;;;;;5051103;28;20314;-80
2022/08/05 02:36:58;;;;;;;5.50;3.70;;;17.30;99.90;;;;;;5028322;28;20123;-79
2022/08/05 02:39:28;;;;;;;7.10;4.28;;;17.30;99.90;;;;;;5036214;28;20102;-79
2022/08/05 02:41:55;;;;;;;4.38;3.38;;;17.30;99.90;;;;;;5066888;28;20455;-79
2022/08/05 02:44:23;;;;;;;3.97;3.58;;;17.30;99.90;;;;;;5040382;28;20087;-80
2022/08/05 02:46:51;;;;;;;4.90;3.85;;;17.30;99.90;;;;;;5043179;28;20518;-80
2022/08/05 02:49:18;;;;;;;4.38;3.70;;;17.30;99.90;;;;;;5030223;28;20128;-79
2022/08/05 02:51:44;;;;;;;5.40;3.70;;;17.30;99.90;;;;;;5018449;28;20089;-80
2022/08/05 02:54:11;;;;;;;5.80;4.20;;;17.30;99.90;;;;;;5029326;28;20068;-79
2022/08/05 02:56:38;;;;;;;4.03;3.50;;;17.20;99.90;;;;;;5033195;28;20041;-79
2022/08/05 02:59:05;;;;;;;6.25;4.10;;;17.20;99.90;;;;;;5036823;28;20048;-79
2022/08/05 03:01:33;;;;;;;6.07;3.70;;;17.10;99.90;;;;;;5027160;28;20059;-80
2022/08/05 03:04:03;;;;;;;4.40;3.75;;;17.10;99.90;;;;;;5042627;28;20033;-79
2022/08/05 03:06:30;;;;;;;4.97;3.92;;;17.10;99.90;;;;;;5056950;28;20052;-80
2022/08/05 03:08:56;;;;;;;5.00;3.65;;;17.10;99.90;;;;;;5057197;28;20136;-80
2022/08/05 03:11:25;;;;;;;5.20;3.60;;;17.10;99.90;;;;;;5040990;28;20080;-80
2022/08/05 03:13:51;;;;;;;5.78;4.28;;;17.10;99.90;;;;;;5061945;28;20032;-80
2022/08/05 03:16:18;;;;;;;5.57;4.05;;;17.10;99.90;;;;;;5052784;28;20032;-80
2022/08/05 03:18:44;;;;;;;6.43;4.40;;;17.00;99.90;;;;;;5057894;28;20076;-80
2022/08/05 03:21:10;;;;;;;5.53;4.65;;;17.00;99.90;;;;;;5031256;28;20090;-79
2022/08/05 03:23:37;;;;;;;5.78;4.70;;;17.00;99.90;;;;;;5027427;28;20040;-80
2022/08/05 03:26:03;;;;;;;5.88;4.90;;;17.10;99.90;;;;;;5049965;28;20385;-80
2022/08/05 03:28:30;;;;;;;4.78;4.03;;;17.00;99.90;;;;;;5056404;28;20047;-80
2022/08/05 03:30:56;;;;;;;6.10;4.60;;;17.00;99.90;;;;;;5030996;28;20039;-80
2022/08/05 03:33:22;;;;;;;4.68;4.28;;;17.00;99.90;;;;;;5029891;28;20032;-80
2022/08/05 03:35:49;;;;;;;6.57;4.28;;;16.90;99.90;;;;;;5039579;28;20093;-80
2022/08/05 03:38:15;;;;;;;6.78;4.18;;;17.00;99.90;;;;;;5036045;28;20037;-79
2022/08/05 03:40:42;;;;;;;5.97;4.40;;;16.90;99.90;;;;;;5038817;28;20120;-79
2022/08/05 03:43:08;;;;;;;6.47;4.78;;;16.80;99.90;;;;;;5026131;28;20083;-80
2022/08/05 03:45:34;;;;;;;5.30;4.18;;;17.00;99.90;;;;;;5041395;28;20041;-80
2022/08/05 03:47:59;;;;;;;6.60;4.80;;;16.90;99.90;;;;;;5053850;28;20036;-80
2022/08/05 03:50:32;;;;;;;7.28;4.50;;;16.80;99.90;;;;;;5040783;28;20032;-80
2022/08/05 03:53:13;;;;;;;6.65;4.65;;;16.90;99.90;;;;;;5040137;28;20128;-80
2022/08/05 03:55:50;;;;;;;5.60;4.30;;;16.90;99.90;;;;;;5039769;28;20055;-80
2022/08/05 03:58:19;;;;;;;5.35;4.50;;;16.90;99.90;;;;;;5039559;28;20425;-80
2022/08/05 04:00:45;;;;;;;7.28;4.97;;;16.90;99.90;;;;;;5042306;28;20036;-79
2022/08/05 04:03:13;;;;;;;6.72;5.30;;;16.80;99.90;;;;;;5056385;28;20044;-80
2022/08/05 04:05:41;;;;;;;6.60;5.07;;;16.90;99.90;;;;;;5051669;28;20097;-79
2022/08/05 04:08:09;;;;;;;5.13;4.57;;;16.80;99.90;;;;;;5052321;28;20045;-79
2022/08/05 04:10:36;;;;;;;6.40;5.15;;;16.80;99.90;;;;;;5038410;28;20040;-79
2022/08/05 04:13:02;;;;;;;7.05;5.15;;;16.90;99.90;;;;;;5041528;28;20044;-80
2022/08/05 04:15:28;;;;;;;6.53;4.57;;;16.80;99.90;;;;;;5035530;28;20089;-80
2022/08/05 04:18:00;;;;;;;7.13;4.88;;;16.80;99.90;;;;;;5036787;28;20040;-80
2022/08/05 04:20:25;;;;;;;5.40;4.90;;;16.80;99.90;;;;;;5058661;28;20068;-80
2022/08/05 04:22:51;;;;;;;5.78;4.75;;;16.80;99.90;;;;;;5030913;28;20071;-80
2022/08/05 04:25:17;;;;;;;7.28;5.20;;;16.80;99.90;;;;;;5055670;28;20040;-79
2022/08/05 04:27:42;;;;;;;5.72;4.85;;;16.90;99.90;;;;;;5038988;28;20043;-79
2022/08/05 04:30:09;;;;;;;6.05;4.93;;;16.80;99.90;;;;;;5032634;28;20037;-80
2022/08/05 04:32:35;;;;;;;5.18;4.65;;;16.80;99.90;;;;;;5027338;28;20036;-80
2022/08/05 04:35:00;;;;;;;7.45;5.10;;;16.80;99.90;;;;;;5034992;28;20028;-80
2022/08/05 04:37:26;;;;;;;8.52;5.15;;;16.70;99.90;;;;;;5035271;28;20155;-82
2022/08/05 04:39:52;;;;;;;6.13;5.13;;;16.80;99.90;;;;;;5034271;28;20032;-80
2022/08/05 04:42:17;;;;;;;6.72;5.20;;;16.80;99.90;;;;;;5019103;28;20082;-79
2022/08/05 04:44:43;;;;;;;7.70;5.47;;;16.80;99.90;;;;;;5018929;28;20051;-80
2022/08/05 04:47:08;;;;;;;9.52;5.53;;;16.80;99.90;;;;;;5018449;28;20102;-80
2022/08/05 04:49:34;;;;;;;6.47;5.88;;;16.80;99.90;;;;;;5020447;28;20037;-79
2022/08/05 04:52:00;;;;;;;7.00;5.60;;;16.70;99.90;;;;;;5038766;28;20043;-80
2022/08/05 04:54:26;;;;;;;7.03;5.57;;;16.90;99.90;;;;;;5055177;28;20481;-79
2022/08/05 04:56:53;;;;;;;5.85;5.25;;;16.80;99.90;;;;;;5051418;28;20504;-79
2022/08/05 04:59:19;;;;;;;9.68;5.60;;;16.90;99.90;;;;;;5051365;28;20033;-80
2022/08/05 05:01:45;;;;;;;6.25;4.93;;;16.90;99.90;;;;;;5037094;28;20037;-80
2022/08/05 05:04:10;;;;;;;7.07;4.88;;;16.90;99.90;;;;;;5024299;28;20035;-80
2022/08/05 05:06:37;;;;;;;5.35;4.85;;;16.90;99.90;;;;;;5035710;28;20078;-80
2022/08/05 05:09:03;;;;;;;6.35;5.00;;;16.80;99.90;;;;;;5045022;28;20085;-80
2022/08/05 05:11:29;;;;;;;8.40;5.40;;;16.90;99.90;;;;;;5034917;28;20040;-78
2022/08/05 05:13:54;;;;;;;8.05;5.43;;;16.90;99.90;;;;;;5027227;28;20090;-80
2022/08/05 05:16:20;;;;;;;6.68;5.32;;;16.90;99.90;;;;;;5059423;28;20037;-79
2022/08/05 05:18:45;;;;;;;5.97;5.40;;;16.90;99.90;;;;;;5034575;28;20124;-79
2022/08/05 05:21:11;;;;;;;6.03;5.30;;;16.90;99.90;;;;;;5049382;28;20134;-80
2022/08/05 05:23:36;;;;;;;6.22;5.40;;;16.90;99.90;;;;;;5062793;28;20403;-79
2022/08/05 05:26:03;;;;;;;5.93;5.10;;;16.90;99.90;;;;;;5037947;28;20047;-79
2022/08/05 05:28:28;;;;;;;7.93;5.28;;;16.90;99.90;;;;;;5054631;28;20032;-79
2022/08/05 05:30:54;;;;;;;6.55;4.95;;;16.90;99.90;;;;;;5038240;28;20090;-80
2022/08/05 05:33:20;;;;;;;6.63;5.13;;;16.80;99.90;;;;;;5023091;28;20041;-80
2022/08/05 05:35:46;;;;;;;6.22;4.70;;;16.80;99.90;;;;;;5028212;28;20040;-79
2022/08/05 05:38:11;;;;;;;6.07;5.30;;;16.80;99.90;;;;;;5029403;28;20025;-79
2022/08/05 05:40:37;;;;;;;6.68;5.60;;;16.80;99.90;;;;;;5044514;28;20036;-79
2022/08/05 05:43:03;;;;;;;5.22;4.72;;;16.70;99.90;;;;;;5034144;28;20086;-79
2022/08/05 05:45:29;;;;;;;6.05;5.45;;;16.70;99.90;;;;;;5053106;28;20042;-79
2022/08/05 05:47:57;;;;;;;6.80;5.20;;;16.70;99.90;;;;;;5031088;28;20089;-79
2022/08/05 05:50:24;;;;;;;6.35;5.38;;;16.70;99.90;;;;;;5056238;28;20056;-80
2022/08/05 05:52:49;;;;;;;5.80;5.15;;;16.70;99.90;;;;;;5062933;28;20491;-80
2022/08/05 05:55:16;;;;;;;8.55;5.10;;;16.70;99.90;;;;;;5029284;28;20036;-80
2022/08/05 05:57:43;;;;;;;7.35;5.72;;;16.60;99.90;;;;;;5033449;28;20036;-79
2022/08/05 06:00:17;;;;;;;6.20;5.25;;;16.70;99.90;;;;;;5030124;28;20048;-79
2022/08/05 06:02:45;;;;;;;6.13;5.40;;;16.80;99.90;;;;;;5045640;28;20044;-79
2022/08/05 06:05:12;;;;;;;5.93;5.40;;;16.80;99.90;;;;;;5039045;28;20040;-80
2022/08/05 06:07:38;;;;;;;5.63;5.03;;;16.80;99.90;;;;;;5033995;28;20050;-80
2022/08/05 06:10:05;;;;;;;6.15;4.95;;;16.80;99.90;;;;;;5040681;28;20028;-80
2022/08/05 06:12:30;;;;;;;8.52;5.55;;;17.00;99.90;;;;;;5057922;28;20036;-80
2022/08/05 06:14:56;;;;;;;5.75;4.60;;;17.10;99.90;;;;;;5056114;28;20035;-79
2022/08/05 06:17:22;;;;;;;5.85;4.82;;;17.10;99.90;;;;;;5063187;28;20037;-80
2022/08/05 06:19:48;;;;;;;6.63;4.43;;;17.10;99.90;;;;;;5033586;28;20037;-80
2022/08/05 06:22:23;;;;;;;5.65;5.00;;;17.10;99.90;;;;;;5027955;28;20040;-80
2022/08/05 06:24:49;;;;;;;6.18;4.30;;;17.10;99.90;;;;;;5036910;28;20047;-79
2022/08/05 06:27:14;;;;;;;5.45;4.10;;;17.00;99.90;;;;;;5052847;28;20036;-79
2022/08/05 06:29:40;;;;;;;6.20;4.70;;;17.00;99.90;;;;;;5036913;28;20072;-80
2022/08/05 06:32:05;;;;;;;5.15;4.65;;;17.10;99.90;;;;;;5040885;28;20054;-80
2022/08/05 06:34:31;;;;;;;5.68;4.90;;;17.20;99.90;;;;;;5067876;28;20055;-79
2022/08/05 06:36:57;;;;;;;5.85;3.88;;;17.20;99.90;;;;;;5049014;28;20036;-80
2022/08/05 06:39:22;;;;;;;5.63;4.30;;;17.30;99.90;;;;;;5056605;28;20036;-80
2022/08/05 06:41:49;;;;;;;6.22;4.30;;;17.40;99.90;;;;;;5045016;28;20115;-80
2022/08/05 06:44:14;;;;;;;5.78;4.38;;;17.50;99.90;;;;;;5056690;28;20518;-80
2022/08/05 06:46:40;;;;;;;6.32;4.00;;;17.60;99.90;;;;;;5031181;28;20040;-79
2022/08/05 06:49:05;;;;;;;5.85;3.28;;;17.60;99.90;;;;;;5021074;28;20041;-80
2022/08/05 06:51:31;;;;;;;4.10;3.67;;;17.70;99.90;;;;;;5045484;28;20037;-83
2022/08/05 06:54:02;;;;;;;6.88;3.42;;;17.70;99.90;;;;;;5049289;28;20043;-77
2022/08/05 06:56:28;;;;;;;3.95;3.08;;;17.80;99.90;;;;;;5057146;28;20032;-77
2022/08/05 06:58:54;;;;;;;4.32;2.97;;;17.80;99.90;;;;;;5052695;28;20041;-75
2022/08/05 07:01:20;;;;;;;5.40;2.85;;;17.80;99.90;;;;;;5047306;28;20064;-78
2022/08/05 07:03:46;;;;;;;4.18;3.13;;;17.80;99.90;;;;;;5061439;28;20085;-78
2022/08/05 07:06:11;;;;;;;3.90;3.08;;;17.90;99.90;;;;;;5062742;28;20088;-77
2022/08/05 07:08:37;;;;;;;3.35;2.63;;;18.00;99.90;;;;;;5040224;28;20041;-78
2022/08/05 07:11:03;;;;;;;2.40;1.90;;;18.10;99.90;;;;;;5024927;28;20194;-78
2022/08/05 07:18:58;;;;;;;2.65;1.50;;;18.70;99.90;;;;;;5050557;28;20044;-78
2022/08/05 07:21:23;;;;;;;2.60;1.70;;;18.90;99.90;;;;;;5031877;28;20472;-77
2022/08/05 07:23:49;;;;;;;3.85;2.00;;;19.00;99.90;;;;;;5037605;28;20044;-78
2022/08/05 07:26:15;;;;;;;3.25;1.55;;;19.10;99.90;;;;;;5036732;28;20044;-78
2022/08/05 07:28:40;;;;;;;3.95;1.40;;;19.20;99.90;;;;;;5025867;28;20392;-78
2022/08/05 07:31:07;;;;;;;2.00;1.23;;;19.20;99.90;;;;;;5044833;28;20028;-78
2022/08/05 07:33:32;;;;;;;2.33;1.30;;;19.20;99.90;;;;;;5036712;28;20041;-78
2022/08/05 07:35:58;;;;;;;3.78;1.75;;;19.20;99.90;;;;;;5038730;28;20040;-78
2022/08/05 07:38:24;;;;;;;2.92;1.70;;;19.30;99.90;;;;;;5037468;28;20385;-79
2022/08/05 07:40:50;;;;;;;1.73;1.40;;;19.40;99.90;;;;;;5051526;28;20032;-83
2022/08/05 07:43:16;;;;;;;3.90;1.80;;;19.50;99.90;;;;;;5038559;28;20032;-83
2022/08/05 07:45:44;;;;;;;1.73;1.27;;;19.50;99.90;;;;;;5030634;28;20554;-83
2022/08/05 07:48:10;;;;;;;1.55;1.30;;;19.60;99.90;;;;;;5042319;28;20492;-83
2022/08/05 07:50:37;;;;;;;5.78;1.75;;;19.70;99.90;;;;;;5020246;28;20072;-83
2022/08/05 07:53:03;;;;;;;3.10;1.40;;;19.60;99.90;;;;;;5043062;28;20033;-82
2022/08/05 07:55:30;;;;;;;2.90;1.40;;;19.60;99.90;;;;;;5027826;28;20037;-83
2022/08/05 07:57:56;;;;;;;2.40;1.50;;;19.60;99.90;;;;;;5019547;28;20037;-83
2022/08/05 08:00:22;;;;;;;2.58;1.30;;;19.70;99.90;;;;;;5036160;28;20037;-82
2022/08/05 08:02:47;;;;;;;1.83;1.30;;;19.70;99.90;;;;;;5042821;28;20449;-83
2022/08/05 08:05:13;;;;;;;1.55;1.10;;;19.70;99.90;;;;;;5055395;28;20029;-78
2022/08/05 08:07:38;;;;;;;2.45;1.33;;;19.70;99.90;;;;;;5051669;28;20455;-77
2022/08/05 08:10:05;;;;;;;3.45;1.40;;;19.70;99.90;;;;;;5053799;28;20025;-79
2022/08/05 08:12:30;;;;;;;1.95;1.10;;;19.80;99.90;;;;;;5042507;28;20067;-77
2022/08/05 08:14:56;;;;;;;2.58;1.25;;;19.80;99.90;;;;;;5054213;28;20473;-77
2022/08/05 08:17:22;;;;;;;1.65;1.33;;;19.90;99.90;;;;;;5046430;28;20037;-77
2022/08/05 08:19:48;;;;;;;1.75;1.17;;;20.00;99.90;;;;;;5040115;28;20033;-76
2022/08/05 08:22:13;;;;;;;2.50;1.13;;;20.10;99.90;;;;;;5052399;28;20028;-76
2022/08/05 08:24:39;;;;;;;2.80;1.08;;;20.50;99.90;;;;;;5043593;28;20159;-77
2022/08/05 08:27:05;;;;;;;3.15;1.10;;;21.00;99.90;;;;;;5036295;28;20082;-76
2022/08/05 08:29:31;;;;;;;2.60;1.05;;;21.40;99.90;;;;;;5035471;28;20420;-77
2022/08/05 08:31:57;;;;;;;1.83;1.15;;;21.40;99.90;;;;;;5030943;28;20098;-78
2022/08/05 08:34:24;;;;;;;2.03;0.98;;;21.30;99.90;;;;;;5055857;28;20036;-78
2022/08/05 08:36:50;;;;;;;3.28;1.08;;;21.50;99.90;;;;;;5070452;28;20040;-78
2022/08/05 08:39:17;;;;;;;0.82;0.82;;;21.80;99.90;;;;;;5054083;28;20040;-78
2022/08/05 08:41:46;;;;;;;1.17;0.50;;;22.40;99.90;;;;;;5047198;28;20059;-78
2022/08/05 08:44:13;;;;;;;1.65;1.00;;;23.20;99.90;;;;;;5038043;28;20044;-78
2022/08/05 08:46:40;;;;;;;1.33;0.52;;;23.90;99.90;;;;;;5036694;28;20059;-78
2022/08/05 08:49:06;;;;;;;1.95;0.77;;;24.30;99.90;;;;;;5028233;28;20044;-78
2022/08/05 08:51:34;;;;;;;1.63;0.75;;;24.40;99.90;;;;;;5069416;28;20033;-78
2022/08/05 08:54:00;;;;;;;1.38;0.60;;;24.20;99.90;;;;;;5047713;28;20045;-78
2022/08/05 08:56:26;;;;;;;3.05;0.80;;;24.40;99.90;;;;;;5051352;28;20037;-78
2022/08/05 08:58:52;;;;;;;1.23;0.60;;;24.50;99.90;;;;;;5044312;28;20032;-78
2022/08/05 09:01:18;;;;;;;0.95;0.60;;;24.60;99.90;;;;;;5055863;28;20035;-78
2022/08/05 09:03:52;;;;;;;2.80;0.93;;;25.10;99.90;;;;;;5050223;28;20036;-78
2022/08/05 09:06:18;;;;;;;1.35;0.45;;;25.90;97.80;;;;;;5068708;28;20040;-79
2022/08/05 09:08:44;;;;;;;1.92;0.57;;;26.10;96.10;;;;;;5030072;28;20048;-79
2022/08/05 09:11:11;;;;;;;0.47;0.40;;;26.10;93.30;;;;;;5058423;28;20041;-81
2022/08/05 09:13:37;;;;;;;2.63;0.40;;;26.00;92.20;;;;;;5054440;28;20044;-83
2022/08/05 09:16:04;;;;;;;3.50;0.65;;;26.10;90.20;;;;;;5036875;28;20039;-83
2022/08/05 09:18:29;;;;;;;1.25;0.47;;;26.20;89.50;;;;;;5037162;28;20184;-83
2022/08/05 09:20:55;;;;;;;0.82;0.40;;;26.30;85.60;;;;;;5046019;28;20503;-82
2022/08/05 09:23:21;;;;;;;2.42;0.40;;;26.30;81.70;;;;;;5034537;28;20075;-83
2022/08/05 09:25:52;;;;;;;0.98;0.50;;;26.00;79.70;;;;;;5034564;28;20033;-82
2022/08/05 09:28:24;;;;;;;0.95;0.38;;;25.70;77.30;;;;;;5050946;28;20040;-82
2022/08/05 09:31:03;;;;;;;2.30;0.50;;;25.40;77.40;;;;;;5044830;28;20055;-82
2022/08/05 09:33:30;;;;;;;0.93;0.40;;;25.50;77.90;;;;;;5021292;28;20045;-82
2022/08/05 09:36:03;;;;;;;1.20;0.30;;;26.00;80.00;;;;;;5017923;28;20493;-82
2022/08/05 09:38:30;;;;;;;0.50;0.30;;;26.50;78.90;;;;;;5021789;28;20076;-82
2022/08/05 09:41:08;;;;;;;1.65;0.40;;;26.70;76.00;;;;;;5042113;28;20543;-82
2022/08/05 09:43:36;;;;;;;0.95;0.30;;;26.70;75.10;;;;;;5025575;28;20090;-82
2022/08/05 09:46:05;;;;;;;1.58;0.50;;;26.90;74.90;;;;;;5030379;28;20040;-82
2022/08/05 09:48:33;;;;;;;1.70;0.30;;;27.20;74.50;;;;;;5037287;28;20079;-82
2022/08/05 09:51:01;;;;;;;0.82;0.30;;;27.30;73.00;;;;;;5028669;28;20450;-81
2022/08/05 09:53:28;;;;;;;2.20;0.30;;;27.10;70.30;;;;;;5037995;28;20063;-82
2022/08/05 09:55:57;;;;;;;0.20;0.20;;;27.20;70.50;;;;;;5017511;28;20072;-82
2022/08/05 09:58:24;;;;;;;1.17;0.35;;;27.50;71.00;;;;;;5021865;28;20727;-85
2022/08/05 10:00:55;;;;;;;0.95;0.30;;;27.70;69.60;;;;;;5025298;28;20041;-82
2022/08/05 10:03:21;;;;;;;0.63;0.30;;;27.60;66.60;;;;;;5025594;28;20051;-82
2022/08/05 10:05:59;;;;;;;2.47;0.30;;;27.40;64.90;;;;;;5037643;28;20508;-78
2022/08/05 10:08:25;;;;;;;1.67;0.30;;;27.30;62.80;;;;;;5064974;28;20153;-78
2022/08/05 10:10:51;;;;;;;1.70;0.30;;;27.50;64.60;;;;;;5058889;28;20032;-78
2022/08/05 10:13:35;;;;;;;0.13;0.10;;;27.60;65.00;;;;;;5055134;28;20079;-77
2022/08/05 10:16:03;;;;;;;0.90;0.30;;;27.60;61.30;;;;;;5050921;28;20044;-79
2022/08/05 10:18:31;;;;;;;2.15;0.30;;;27.50;63.10;;;;;;5041115;28;20036;-78
2022/08/05 10:21:05;;;;;;;0.50;0.20;;;27.30;63.20;;;;;;5054019;28;20131;-78
2022/08/05 10:23:36;;;;;;;0.82;0.30;;;27.10;63.00;;;;;;5050752;28;20123;-78
2022/08/05 10:26:05;;;;;;;0.82;0.28;;;26.80;62.70;;;;;;5036710;28;20048;-78
2022/08/05 10:28:33;;;;;;;2.88;0.40;;;26.70;62.20;;;;;;5030710;28;20420;-78
2022/08/05 10:30:59;;;;;;;0.73;0.40;;;26.50;62.10;;;;;;5014681;28;20091;-80
2022/08/05 10:33:28;;;;;;;1.15;0.30;;;26.30;62.10;;;;;;5034955;28;20045;-78
2022/08/05 10:35:55;;;;;;;0.95;0.30;;;26.30;62.60;;;;;;5038448;28;20131;-77
2022/08/05 10:38:22;;;;;;;1.98;0.30;;;26.50;63.20;;;;;;5017239;28;20076;-77
2022/08/05 10:41:10;;;;;;;0.63;0.20;;;26.80;62.60;;;;;;5032805;28;20052;-78
2022/08/05 10:43:44;;;;;;;0.32;0.17;;;27.10;63.00;;;;;;5024394;28;20494;-79
2022/08/05 10:46:12;;;;;;;2.08;0.30;;;27.50;60.60;;;;;;5029432;28;20446;-78
2022/08/05 10:48:46;;;;;;;0.70;0.20;;;27.70;59.30;;;;;;5034763;28;20037;-78
2022/08/05 10:51:16;;;;;;;0.63;0.30;;;27.80;57.50;;;;;;5032497;28;20040;-78
2022/08/05 10:53:56;;;;;;;0.20;0.10;;;28.00;57.10;;;;;;5025342;28;20064;-77
2022/08/05 10:56:27;;;;;;;1.33;0.25;;;28.10;56.90;;;;;;5036321;28;20120;-77
2022/08/05 10:58:53;;;;;;;0.45;0.22;;;28.30;54.50;;;;;;5029968;28;20045;-77
2022/08/05 11:01:36;;;;;;;0.22;0.10;;;28.30;55.30;;;;;;5030320;28;20038;-77
2022/08/05 11:04:19;;;;;;;0.40;0.10;;;28.40;53.80;;;;;;5026175;28;20033;-76
2022/08/05 11:06:59;;;;;;;0.75;0.22;;;28.40;54.40;;;;;;5030876;28;20045;-77
2022/08/05 11:09:42;;;;;;;0.55;0.15;;;28.50;53.20;;;;;;5017434;28;20042;-76
2022/08/05 11:12:35;;;;;;;0.52;0.20;;;28.80;55.00;;;;;;5017005;28;20037;-81
2022/08/05 11:15:05;;;;;;;3.65;0.30;;;28.90;47.80;;;;;;5003857;28;20050;-81
2022/08/05 11:17:33;;;;;;;0.50;0.20;;;28.80;53.10;;;;;;5029685;28;20037;-82
2022/08/05 11:19:59;;;;;;;0.70;0.15;;;29.00;53.40;;;;;;5036171;28;20128;-87
2022/08/05 11:22:46;;;;;;;1.45;0.20;;;29.10;51.90;;;;;;5019503;28;20427;-82
2022/08/05 11:25:30;;;;;;;0.43;0.10;;;28.70;50.90;;;;;;5014659;28;20424;-82
2022/08/05 11:28:08;;;;;;;0.47;0.20;;;28.30;49.10;;;;;;5009700;28;20041;-82
2022/08/05 11:30:56;;;;;;;0.60;0.22;;;27.90;50.40;;;;;;5009184;28;20048;-81
2022/08/05 11:33:38;;;;;;;0.55;0.30;;;27.40;51.50;;;;;;5021544;28;20485;-81
2022/08/05 11:36:10;;;;;;;0.10;0.10;;;26.90;50.70;;;;;;5009849;28;20045;-81
2022/08/05 11:38:42;;;;;;;0.85;0.17;;;26.60;51.10;;;;;;5018797;28;20500;-82
2022/08/05 11:41:28;;;;;;;1.40;0.20;;;26.20;50.90;;;;;;5016879;28;20037;-82
2022/08/05 11:43:59;;;;;;;2.95;0.20;;;25.90;52.40;;;;;;5015038;28;20056;-82
2022/08/05 11:46:35;;;;;;;17.58;1.50;;;25.70;53.30;;;;;;5008288;28;20045;-82
2022/08/05 11:49:01;;;;;;;2.38;0.20;;;25.70;55.10;;;;;;5007230;28;20131;-82
2022/08/05 11:51:29;;;;;;;2.20;0.20;;;25.70;54.90;;;;;;5039681;28;20100;-82
2022/08/05 11:53:55;;;;;;;0.20;0.10;;;25.60;54.10;;;;;;5032540;28;20060;-81
2022/08/05 11:56:21;;;;;;;2.47;0.20;;;25.40;55.50;;;;;;5011455;28;20490;-82
2022/08/05 11:58:48;;;;;;;0.25;0.13;;;25.30;55.80;;;;;;5017589;28;20515;-82
2022/08/05 12:01:16;;;;;;;0.93;0.10;;;25.40;56.10;;;;;;5035906;28;20064;-81
2022/08/05 12:03:51;;;;;;;0.82;0.20;;;25.70;55.00;;;;;;5021983;28;20051;-83
2022/08/05 12:06:19;;;;;;;0.73;0.28;;;26.00;51.20;;;;;;5025792;28;20037;-83
2022/08/05 12:08:53;;;;;;;0.68;0.28;;;26.00;52.70;;;;;;5033677;28;20040;-82
2022/08/05 12:11:24;;;;;;;4.75;0.40;;;25.90;54.00;;;;;;5035053;28;20041;-82
2022/08/05 12:14:01;;;;;;;0.40;0.10;;;25.90;55.00;;;;;;5019708;28;20485;-82
2022/08/05 12:16:35;;;;;;;0.85;0.20;;;25.90;55.10;;;;;;5041361;28;20044;-82
2022/08/05 12:19:01;;;;;;;1.50;0.20;;;25.70;55.10;;;;;;5019116;28;20037;-82
2022/08/05 12:21:34;;;;;;;2.15;0.30;;;25.50;55.90;;;;;;5017978;28;20033;-82
2022/08/05 12:24:02;;;;;;;6.28;0.68;;;25.20;56.90;;;;;;5014963;28;20033;-82
2022/08/05 12:26:46;;;;;;;2.45;0.20;;;25.10;56.80;;;;;;5030165;28;20051;-83
2022/08/05 12:29:15;;;;;;;2.00;0.20;;;24.90;56.80;;;;;;5018967;28;20032;-82
2022/08/05 12:31:45;;;;;;;0.32;0.10;;;24.70;56.80;;;;;;5017927;28;20473;-83
2022/08/05 12:34:11;;;;;;;0.45;0.22;;;24.40;55.00;;;;;;5038815;28;20674;-81
2022/08/05 12:36:38;;;;;;;1.75;0.20;;;24.10;55.50;;;;;;5009876;28;20073;-81
2022/08/05 12:39:05;;;;;;;0.63;0.20;;;23.90;56.80;;;;;;5008670;28;20037;-82
2022/08/05 12:41:33;;;;;;;1.23;0.25;;;23.80;57.90;;;;;;5010675;28;20083;-82
2022/08/05 12:44:19;;;;;;;0.88;0.30;;;23.80;58.00;;;;;;5018390;28;20037;-82
2022/08/05 12:46:52;;;;;;;0.28;0.20;;;23.80;59.70;;;;;;5015629;28;20508;-82
2022/08/05 12:49:18;;;;;;;1.52;0.32;;;23.80;58.90;;;;;;5011870;28;20033;-82
2022/08/05 12:51:49;;;;;;;0.45;0.30;;;23.80;59.30;;;;;;5009295;28;20099;-82
2022/08/05 12:54:24;;;;;;;2.05;0.20;;;24.10;59.70;;;;;;5013395;28;20106;-82
2022/08/05 12:57:02;;;;;;;0.40;0.28;;;24.60;59.30;;;;;;5018516;28;20037;-84
2022/08/05 12:59:42;;;;;;;1.50;0.47;;;24.80;59.10;;;;;;5035211;28;20078;-82
2022/08/05 13:02:09;;;;;;;2.83;0.30;;;25.00;59.80;;;;;;5012163;28;20120;-81